sensor_id;sensor_type;location;lat;lon;timestamp;temperature;humidity
17687;DHT22;8962;52.538;13.266;2023-01-05T00:01:59;10.10;99.90
17687;DHT22;8962;52.538;13.266;2023-01-05T00:04:29;10.10;99.90
17687;DHT22;8962;52.538;13.266;2023-01-05T00:06:56;10.10;99.90
17687;DHT22;8962;52.538;13.266;2023-01-05T00:09:23;10.10;99.90
17687;DHT22;8962;52.538;13.266;2023-01-05T00:11:54;10.10;99.90
17687;DHT22;8962;52.538;13.266;2023-01-05T00:14:39;10.20;99.90
17687;DHT22;8962;52.538;13.266;2023-01-05T00:17:24;10.20;99.90
17687;DHT22;8962;52.538;13.266;2023-01-05T00:20:14;10.30;99.90
17687;DHT22;8962;52.538;13.266;2023-01-05T00:23:00;10.30;99.90
17687;DHT22;8962;52.538;13.266;2023-01-05T00:25:29;10.30;99.90
17687;DHT22;8962;52.538;13.266;2023-01-05T00:27:59;10.40;99.90
17687;DHT22;8962;52.538;13.266;2023-01-05T00:30:28;10.40;99.90
17687;DHT22;8962;52.538;13.266;2023-01-05T00:32:56;10.50;99.90
17687;DHT22;8962;52.538;13.266;2023-01-05T00:35:23;10.50;99.90
17687;DHT22;8962;52.538;13.266;2023-01-05T00:37:50;10.50;99.90
17687;DHT22;8962;52.538;13.266;2023-01-05T00:40:21;10.50;99.90
17687;DHT22;8962;52.538;13.266;2023-01-05T00:42:49;10.60;99.90
17687;DHT22;8962;52.538;13.266;2023-01-05T00:45:18;10.60;99.90
17687;DHT22;8962;52.538;13.266;2023-01-05T00:47:47;10.50;99.90
17687;DHT22;8962;52.538;13.266;2023-01-05T00:50:16;10.50;99.90
17687;DHT22;8962;52.538;13.266;2023-01-05T00:52:45;10.50;99.90
17687;DHT22;8962;52.538;13.266;2023-01-05T00:55:13;10.50;99.90
17687;DHT22;8962;52.538;13.266;2023-01-05T00:57:42;10.50;99.90
17687;DHT22;8962;52.538;13.266;2023-01-05T01:00:12;10.40;99.90
17687;DHT22;8962;52.538;13.266;2023-01-05T01:02:43;10.40;99.90
17687;DHT22;8962;52.538;13.266;2023-01-05T01:05:10;10.40;99.90
17687;DHT22;8962;52.538;13.266;2023-01-05T01:07:39;10.40;99.90
17687;DHT22;8962;52.538;13.266;2023-01-05T01:10:07;10.40;99.90
17687;DHT22;8962;52.538;13.266;2023-01-05T01:12:35;10.40;99.90
17687;DHT22;8962;52.538;13.266;2023-01-05T01:15:03;10.50;99.90
17687;DHT22;8962;52.538;13.266;2023-01-05T01:17:31;10.50;99.90
17687;DHT22;8962;52.538;13.266;2023-01-05T01:19:59;10.50;99.90
17687;DHT22;8962;52.538;13.266;2023-01-05T01:22:27;10.50;99.90
17687;DHT22;8962;52.538;13.266;2023-01-05T01:24:54;10.50;99.90
17687;DHT22;8962;52.538;13.266;2023-01-05T01:27:23;10.50;99.90
17687;DHT22;8962;52.538;13.266;2023-01-05T01:29:51;10.40;99.90
17687;DHT22;8962;52.538;13.266;2023-01-05T01:32:19;10.40;99.90
17687;DHT22;8962;52.538;13.266;2023-01-05T01:34:49;10.40;99.90
17687;DHT22;8962;52.538;13.266;2023-01-05T01:37:18;10.40;99.90
17687;DHT22;8962;52.538;13.266;2023-01-05T01:39:51;10.40;99.90
17687;DHT22;8962;52.538;13.266;2023-01-05T01:42:20;10.30;99.90
17687;DHT22;8962;52.538;13.266;2023-01-05T01:44:56;10.30;99.90
17687;DHT22;8962;52.538;13.266;2023-01-05T01:47:46;10.30;99.90
17687;DHT22;8962;52.538;13.266;2023-01-05T01:50:18;10.30;99.90
17687;DHT22;8962;52.538;13.266;2023-01-05T01:52:49;10.30;99.90
17687;DHT22;8962;52.538;13.266;2023-01-05T01:55:20;10.30;99.90
17687;DHT22;8962;52.538;13.266;2023-01-05T01:57:48;10.40;99.90
17687;DHT22;8962;52.538;13.266;2023-01-05T02:00:17;10.50;99.90
17687;DHT22;8962;52.538;13.266;2023-01-05T02:02:51;10.50;99.90
17687;DHT22;8962;52.538;13.266;2023-01-05T02:05:25;10.50;99.90
17687;DHT22;8962;52.538;13.266;2023-01-05T02:07:57;10.60;99.90
17687;DHT22;8962;52.538;13.266;2023-01-05T02:10:35;10.60;99.90
17687;DHT22;8962;52.538;13.266;2023-01-05T02:13:17;10.60;99.90
17687;DHT22;8962;52.538;13.266;2023-01-05T02:15:51;10.50;99.90
17687;DHT22;8962;52.538;13.266;2023-01-05T02:18:31;10.60;99.90
17687;DHT22;8962;52.538;13.266;2023-01-05T02:21:13;10.60;99.90
17687;DHT22;8962;52.538;13.266;2023-01-05T02:27:32;10.50;99.90
17687;DHT22;8962;52.538;13.266;2023-01-05T02:33:09;10.60;99.90
17687;DHT22;8962;52.538;13.266;2023-01-05T02:35:55;10.60;99.90
17687;DHT22;8962;52.538;13.266;2023-01-05T02:38:32;10.60;99.90
17687;DHT22;8962;52.538;13.266;2023-01-05T02:41:06;10.60;99.90
17687;DHT22;8962;52.538;13.266;2023-01-05T02:43:37;10.60;99.90
17687;DHT22;8962;52.538;13.266;2023-01-05T02:46:06;10.60;99.90
17687;DHT22;8962;52.538;13.266;2023-01-05T02:48:35;10.60;99.90
17687;DHT22;8962;52.538;13.266;2023-01-05T02:51:06;10.60;99.90
17687;DHT22;8962;52.538;13.266;2023-01-05T02:53:40;10.60;99.90
17687;DHT22;8962;52.538;13.266;2023-01-05T02:56:14;10.60;99.90
17687;DHT22;8962;52.538;13.266;2023-01-05T02:58:45;10.60;99.90
17687;DHT22;8962;52.538;13.266;2023-01-05T03:01:18;10.60;99.90
17687;DHT22;8962;52.538;13.266;2023-01-05T03:03:53;10.60;99.90
17687;DHT22;8962;52.538;13.266;2023-01-05T03:06:27;10.60;99.90
17687;DHT22;8962;52.538;13.266;2023-01-05T03:08:57;10.50;99.90
17687;DHT22;8962;52.538;13.266;2023-01-05T03:11:33;10.50;99.90
17687;DHT22;8962;52.538;13.266;2023-01-05T03:14:41;10.50;99.90
17687;DHT22;8962;52.538;13.266;2023-01-05T03:17:13;10.60;99.90
17687;DHT22;8962;52.538;13.266;2023-01-05T03:19:48;10.60;99.90
17687;DHT22;8962;52.538;13.266;2023-01-05T03:22:21;10.60;99.90
17687;DHT22;8962;52.538;13.266;2023-01-05T03:25:10;10.60;99.90
17687;DHT22;8962;52.538;13.266;2023-01-05T03:27:59;10.60;99.90
17687;DHT22;8962;52.538;13.266;2023-01-05T03:30:54;10.60;99.90
17687;DHT22;8962;52.538;13.266;2023-01-05T03:33:44;10.60;99.90
17687;DHT22;8962;52.538;13.266;2023-01-05T03:36:39;10.60;99.90
17687;DHT22;8962;52.538;13.266;2023-01-05T03:39:09;10.60;99.90
17687;DHT22;8962;52.538;13.266;2023-01-05T03:41:38;10.70;99.90
17687;DHT22;8962;52.538;13.266;2023-01-05T03:44:06;10.60;99.90
17687;DHT22;8962;52.538;13.266;2023-01-05T03:46:37;10.60;99.90
17687;DHT22;8962;52.538;13.266;2023-01-05T03:49:04;10.60;99.90
17687;DHT22;8962;52.538;13.266;2023-01-05T03:51:33;10.60;99.90
17687;DHT22;8962;52.538;13.266;2023-01-05T03:54:00;10.60;99.90
17687;DHT22;8962;52.538;13.266;2023-01-05T03:56:32;10.50;99.90
17687;DHT22;8962;52.538;13.266;2023-01-05T03:58:59;10.40;99.90
17687;DHT22;8962;52.538;13.266;2023-01-05T04:01:27;10.30;99.90
17687;DHT22;8962;52.538;13.266;2023-01-05T04:03:55;10.30;99.90
17687;DHT22;8962;52.538;13.266;2023-01-05T04:06:23;10.20;99.90
17687;DHT22;8962;52.538;13.266;2023-01-05T04:08:52;10.20;99.90
17687;DHT22;8962;52.538;13.266;2023-01-05T04:11:23;10.20;99.90
17687;DHT22;8962;52.538;13.266;2023-01-05T04:13:58;10.20;99.90
17687;DHT22;8962;52.538;13.266;2023-01-05T04:16:28;10.30;99.90
17687;DHT22;8962;52.538;13.266;2023-01-05T04:18:59;10.30;99.90
17687;DHT22;8962;52.538;13.266;2023-01-05T04:21:26;10.30;99.90
17687;DHT22;8962;52.538;13.266;2023-01-05T04:23:57;10.20;99.90
17687;DHT22;8962;52.538;13.266;2023-01-05T04:26:24;9.90;99.90
17687;DHT22;8962;52.538;13.266;2023-01-05T04:28:51;9.70;99.90
17687;DHT22;8962;52.538;13.266;2023-01-05T04:31:24;9.60;99.90
17687;DHT22;8962;52.538;13.266;2023-01-05T04:33:54;9.50;99.90
17687;DHT22;8962;52.538;13.266;2023-01-05T04:36:24;9.50;99.90
17687;DHT22;8962;52.538;13.266;2023-01-05T04:38:54;9.60;99.90
17687;DHT22;8962;52.538;13.266;2023-01-05T04:41:28;9.60;99.90
17687;DHT22;8962;52.538;13.266;2023-01-05T04:43:55;9.70;99.90
17687;DHT22;8962;52.538;13.266;2023-01-05T04:46:24;9.70;99.90
17687;DHT22;8962;52.538;13.266;2023-01-05T04:48:54;9.70;99.90
17687;DHT22;8962;52.538;13.266;2023-01-05T04:51:24;9.80;99.90
17687;DHT22;8962;52.538;13.266;2023-01-05T04:53:51;9.80;99.90
17687;DHT22;8962;52.538;13.266;2023-01-05T04:56:22;9.80;99.90
17687;DHT22;8962;52.538;13.266;2023-01-05T04:58:51;9.80;99.90
17687;DHT22;8962;52.538;13.266;2023-01-05T05:01:18;9.70;99.90
17687;DHT22;8962;52.538;13.266;2023-01-05T05:03:51;9.70;99.90
17687;DHT22;8962;52.538;13.266;2023-01-05T05:06:20;9.70;99.90
17687;DHT22;8962;52.538;13.266;2023-01-05T05:08:49;9.60;99.90
17687;DHT22;8962;52.538;13.266;2023-01-05T05:11:17;9.60;99.90
17687;DHT22;8962;52.538;13.266;2023-01-05T05:13:46;9.70;99.90
17687;DHT22;8962;52.538;13.266;2023-01-05T05:16:15;9.60;99.90
17687;DHT22;8962;52.538;13.266;2023-01-05T05:18:45;9.60;99.90
17687;DHT22;8962;52.538;13.266;2023-01-05T05:21:17;9.70;99.90
17687;DHT22;8962;52.538;13.266;2023-01-05T05:23:45;9.70;99.90
17687;DHT22;8962;52.538;13.266;2023-01-05T05:26:12;9.70;99.90
17687;DHT22;8962;52.538;13.266;2023-01-05T05:28:44;9.60;99.90
17687;DHT22;8962;52.538;13.266;2023-01-05T05:31:11;9.60;99.90
17687;DHT22;8962;52.538;13.266;2023-01-05T05:33:39;9.60;99.90
17687;DHT22;8962;52.538;13.266;2023-01-05T05:36:07;9.50;99.90
17687;DHT22;8962;52.538;13.266;2023-01-05T05:38:35;9.50;99.90
17687;DHT22;8962;52.538;13.266;2023-01-05T05:41:02;9.60;99.90
17687;DHT22;8962;52.538;13.266;2023-01-05T05:43:29;9.60;99.90
17687;DHT22;8962;52.538;13.266;2023-01-05T05:45:56;9.60;99.90
17687;DHT22;8962;52.538;13.266;2023-01-05T05:48:25;9.60;99.90
17687;DHT22;8962;52.538;13.266;2023-01-05T05:50:53;9.60;99.90
17687;DHT22;8962;52.538;13.266;2023-01-05T05:53:21;9.60;99.90
17687;DHT22;8962;52.538;13.266;2023-01-05T05:55:49;9.60;99.90
17687;DHT22;8962;52.538;13.266;2023-01-05T05:58:19;9.60;99.90
17687;DHT22;8962;52.538;13.266;2023-01-05T06:00:47;9.60;99.90
17687;DHT22;8962;52.538;13.266;2023-01-05T06:03:14;9.50;99.90
17687;DHT22;8962;52.538;13.266;2023-01-05T06:05:43;9.30;99.90
17687;DHT22;8962;52.538;13.266;2023-01-05T06:08:12;9.10;99.90
17687;DHT22;8962;52.538;13.266;2023-01-05T06:10:39;9.00;99.90
17687;DHT22;8962;52.538;13.266;2023-01-05T06:13:06;8.80;99.90
17687;DHT22;8962;52.538;13.266;2023-01-05T06:15:33;8.70;99.90
17687;DHT22;8962;52.538;13.266;2023-01-05T06:18:00;8.60;99.90
17687;DHT22;8962;52.538;13.266;2023-01-05T06:20:28;8.60;99.90
17687;DHT22;8962;52.538;13.266;2023-01-05T06:22:55;8.60;99.90
17687;DHT22;8962;52.538;13.266;2023-01-05T06:25:24;8.70;99.90
17687;DHT22;8962;52.538;13.266;2023-01-05T06:27:53;8.70;99.90
17687;DHT22;8962;52.538;13.266;2023-01-05T06:30:24;8.70;99.90
17687;DHT22;8962;52.538;13.266;2023-01-05T06:32:51;8.80;99.90
17687;DHT22;8962;52.538;13.266;2023-01-05T06:35:18;8.80;99.90
17687;DHT22;8962;52.538;13.266;2023-01-05T06:37:45;8.80;99.90
17687;DHT22;8962;52.538;13.266;2023-01-05T06:40:13;8.90;99.90
17687;DHT22;8962;52.538;13.266;2023-01-05T06:42:42;9.10;99.90
17687;DHT22;8962;52.538;13.266;2023-01-05T06:45:11;9.10;99.90
17687;DHT22;8962;52.538;13.266;2023-01-05T06:47:43;9.10;99.90
17687;DHT22;8962;52.538;13.266;2023-01-05T06:50:10;9.00;99.90
17687;DHT22;8962;52.538;13.266;2023-01-05T06:52:38;9.10;99.90
17687;DHT22;8962;52.538;13.266;2023-01-05T06:55:07;9.10;99.90
17687;DHT22;8962;52.538;13.266;2023-01-05T06:57:35;9.10;99.90
17687;DHT22;8962;52.538;13.266;2023-01-05T07:00:07;9.10;99.90
17687;DHT22;8962;52.538;13.266;2023-01-05T07:02:35;9.10;99.90
17687;DHT22;8962;52.538;13.266;2023-01-05T07:05:02;9.10;99.90
17687;DHT22;8962;52.538;13.266;2023-01-05T07:07:30;9.20;99.90
17687;DHT22;8962;52.538;13.266;2023-01-05T07:09:57;9.20;99.90
17687;DHT22;8962;52.538;13.266;2023-01-05T07:12:25;9.20;99.90
17687;DHT22;8962;52.538;13.266;2023-01-05T07:14:52;9.20;99.90
17687;DHT22;8962;52.538;13.266;2023-01-05T07:17:20;9.30;99.90
17687;DHT22;8962;52.538;13.266;2023-01-05T07:19:49;9.20;99.90
17687;DHT22;8962;52.538;13.266;2023-01-05T07:22:17;9.20;99.90
17687;DHT22;8962;52.538;13.266;2023-01-05T07:24:44;9.30;99.90
17687;DHT22;8962;52.538;13.266;2023-01-05T07:27:11;9.30;99.90
17687;DHT22;8962;52.538;13.266;2023-01-05T07:29:38;9.30;99.90
17687;DHT22;8962;52.538;13.266;2023-01-05T07:32:05;9.20;99.90
17687;DHT22;8962;52.538;13.266;2023-01-05T07:37:02;9.20;99.90
17687;DHT22;8962;52.538;13.266;2023-01-05T07:39:30;9.20;99.90
17687;DHT22;8962;52.538;13.266;2023-01-05T07:41:57;9.10;99.90
17687;DHT22;8962;52.538;13.266;2023-01-05T07:44:25;9.10;99.90
17687;DHT22;8962;52.538;13.266;2023-01-05T07:46:53;9.10;99.90
17687;DHT22;8962;52.538;13.266;2023-01-05T07:49:20;9.10;99.90
17687;DHT22;8962;52.538;13.266;2023-01-05T07:51:48;9.10;99.90
17687;DHT22;8962;52.538;13.266;2023-01-05T07:54:17;9.00;99.90
17687;DHT22;8962;52.538;13.266;2023-01-05T07:56:46;9.00;99.90
17687;DHT22;8962;52.538;13.266;2023-01-05T07:59:13;9.00;99.90
17687;DHT22;8962;52.538;13.266;2023-01-05T08:01:40;9.00;99.90
17687;DHT22;8962;52.538;13.266;2023-01-05T08:04:08;9.00;99.90
17687;DHT22;8962;52.538;13.266;2023-01-05T08:06:35;9.00;99.90
17687;DHT22;8962;52.538;13.266;2023-01-05T08:09:04;9.00;99.90
17687;DHT22;8962;52.538;13.266;2023-01-05T08:11:45;9.10;99.90
17687;DHT22;8962;52.538;13.266;2023-01-05T08:14:12;9.10;99.90
17687;DHT22;8962;52.538;13.266;2023-01-05T08:16:40;9.10;99.90
17687;DHT22;8962;52.538;13.266;2023-01-05T08:19:08;9.10;99.90
17687;DHT22;8962;52.538;13.266;2023-01-05T08:21:35;9.10;99.90
17687;DHT22;8962;52.538;13.266;2023-01-05T08:24:04;9.10;99.90
17687;DHT22;8962;52.538;13.266;2023-01-05T08:26:31;9.20;99.90
17687;DHT22;8962;52.538;13.266;2023-01-05T08:28:59;9.20;99.90
17687;DHT22;8962;52.538;13.266;2023-01-05T08:31:27;9.10;99.90
17687;DHT22;8962;52.538;13.266;2023-01-05T08:33:55;9.20;99.90
17687;DHT22;8962;52.538;13.266;2023-01-05T08:36:23;9.20;99.90
17687;DHT22;8962;52.538;13.266;2023-01-05T08:38:52;9.20;99.90
17687;DHT22;8962;52.538;13.266;2023-01-05T08:41:23;9.20;99.90
17687;DHT22;8962;52.538;13.266;2023-01-05T08:43:55;9.20;99.90
17687;DHT22;8962;52.538;13.266;2023-01-05T08:46:25;9.20;99.90
17687;DHT22;8962;52.538;13.266;2023-01-05T08:48:54;9.10;99.90
17687;DHT22;8962;52.538;13.266;2023-01-05T08:51:25;9.10;99.90
17687;DHT22;8962;52.538;13.266;2023-01-05T08:53:55;9.10;99.90
17687;DHT22;8962;52.538;13.266;2023-01-05T08:56:24;9.10;99.90
17687;DHT22;8962;52.538;13.266;2023-01-05T08:58:52;9.10;99.90
17687;DHT22;8962;52.538;13.266;2023-01-05T09:01:26;9.10;99.90
17687;DHT22;8962;52.538;13.266;2023-01-05T09:04:04;9.20;99.90
17687;DHT22;8962;52.538;13.266;2023-01-05T09:06:31;9.10;99.90
17687;DHT22;8962;52.538;13.266;2023-01-05T09:08:58;9.10;99.90
17687;DHT22;8962;52.538;13.266;2023-01-05T09:11:29;9.10;99.90
17687;DHT22;8962;52.538;13.266;2023-01-05T09:13:58;9.10;99.90
17687;DHT22;8962;52.538;13.266;2023-01-05T09:16:29;9.20;99.90
17687;DHT22;8962;52.538;13.266;2023-01-05T09:18:57;9.20;99.90
17687;DHT22;8962;52.538;13.266;2023-01-05T09:21:25;9.30;99.90
17687;DHT22;8962;52.538;13.266;2023-01-05T09:23:52;9.40;99.90
17687;DHT22;8962;52.538;13.266;2023-01-05T09:26:21;9.40;99.90
17687;DHT22;8962;52.538;13.266;2023-01-05T09:28:51;9.40;99.90
17687;DHT22;8962;52.538;13.266;2023-01-05T09:31:20;9.40;99.90
17687;DHT22;8962;52.538;13.266;2023-01-05T09:33:47;9.50;99.90
17687;DHT22;8962;52.538;13.266;2023-01-05T09:36:16;9.50;99.90
17687;DHT22;8962;52.538;13.266;2023-01-05T09:38:47;9.60;99.90
17687;DHT22;8962;52.538;13.266;2023-01-05T09:41:20;9.70;99.90
17687;DHT22;8962;52.538;13.266;2023-01-05T09:43:53;9.80;99.90
17687;DHT22;8962;52.538;13.266;2023-01-05T09:46:23;9.80;99.90
17687;DHT22;8962;52.538;13.266;2023-01-05T09:48:55;9.90;99.90
17687;DHT22;8962;52.538;13.266;2023-01-05T09:51:25;9.90;99.90
17687;DHT22;8962;52.538;13.266;2023-01-05T09:53:55;9.90;99.90
17687;DHT22;8962;52.538;13.266;2023-01-05T09:56:28;9.90;99.90
17687;DHT22;8962;52.538;13.266;2023-01-05T09:59:03;9.90;99.90
17687;DHT22;8962;52.538;13.266;2023-01-05T10:01:32;9.90;99.90
17687;DHT22;8962;52.538;13.266;2023-01-05T10:04:06;9.90;99.90
17687;DHT22;8962;52.538;13.266;2023-01-05T10:06:39;9.80;99.90
17687;DHT22;8962;52.538;13.266;2023-01-05T10:09:15;9.80;99.90
17687;DHT22;8962;52.538;13.266;2023-01-05T10:11:46;9.80;99.90
17687;DHT22;8962;52.538;13.266;2023-01-05T10:14:39;9.80;99.90
17687;DHT22;8962;52.538;13.266;2023-01-05T10:17:11;9.80;99.90
17687;DHT22;8962;52.538;13.266;2023-01-05T10:19:39;9.70;99.90
17687;DHT22;8962;52.538;13.266;2023-01-05T10:22:17;9.80;99.90
17687;DHT22;8962;52.538;13.266;2023-01-05T10:24:53;9.80;99.90
17687;DHT22;8962;52.538;13.266;2023-01-05T10:27:25;9.80;99.90
17687;DHT22;8962;52.538;13.266;2023-01-05T10:30:02;9.80;99.90
17687;DHT22;8962;52.538;13.266;2023-01-05T10:32:42;9.70;99.90
17687;DHT22;8962;52.538;13.266;2023-01-05T10:35:26;9.70;99.90
17687;DHT22;8962;52.538;13.266;2023-01-05T10:38:05;9.70;99.90
17687;DHT22;8962;52.538;13.266;2023-01-05T10:40:46;9.70;99.90
17687;DHT22;8962;52.538;13.266;2023-01-05T10:43:43;9.80;99.90
17687;DHT22;8962;52.538;13.266;2023-01-05T10:46:29;9.80;99.90
17687;DHT22;8962;52.538;13.266;2023-01-05T10:48:58;9.80;99.90
17687;DHT22;8962;52.538;13.266;2023-01-05T10:51:26;9.80;99.90
17687;DHT22;8962;52.538;13.266;2023-01-05T10:53:57;9.90;99.90
17687;DHT22;8962;52.538;13.266;2023-01-05T10:56:25;9.80;99.90
17687;DHT22;8962;52.538;13.266;2023-01-05T10:59:06;9.80;99.90
17687;DHT22;8962;52.538;13.266;2023-01-05T11:01:36;9.80;99.90
17687;DHT22;8962;52.538;13.266;2023-01-05T11:04:06;9.80;99.90
17687;DHT22;8962;52.538;13.266;2023-01-05T11:06:36;9.80;99.90
17687;DHT22;8962;52.538;13.266;2023-01-05T11:09:10;9.80;99.90
17687;DHT22;8962;52.538;13.266;2023-01-05T11:11:41;9.80;99.90
17687;DHT22;8962;52.538;13.266;2023-01-05T11:14:14;9.80;99.90
17687;DHT22;8962;52.538;13.266;2023-01-05T11:16:48;9.80;99.90
17687;DHT22;8962;52.538;13.266;2023-01-05T11:19:19;9.70;99.90
17687;DHT22;8962;52.538;13.266;2023-01-05T11:21:47;9.60;99.90
17687;DHT22;8962;52.538;13.266;2023-01-05T11:24:28;9.70;99.90
17687;DHT22;8962;52.538;13.266;2023-01-05T11:26:57;9.70;99.90
17687;DHT22;8962;52.538;13.266;2023-01-05T11:29:26;9.70;99.90
17687;DHT22;8962;52.538;13.266;2023-01-05T11:31:58;9.70;99.90
17687;DHT22;8962;52.538;13.266;2023-01-05T11:34:34;9.70;99.90
17687;DHT22;8962;52.538;13.266;2023-01-05T11:37:04;9.70;99.90
17687;DHT22;8962;52.538;13.266;2023-01-05T11:39:34;9.70;99.90
17687;DHT22;8962;52.538;13.266;2023-01-05T11:42:10;9.80;99.90
17687;DHT22;8962;52.538;13.266;2023-01-05T11:44:42;9.90;99.90
17687;DHT22;8962;52.538;13.266;2023-01-05T11:47:21;9.90;99.90
17687;DHT22;8962;52.538;13.266;2023-01-05T11:50:00;9.80;99.90
17687;DHT22;8962;52.538;13.266;2023-01-05T11:52:39;9.90;99.90
17687;DHT22;8962;52.538;13.266;2023-01-05T11:55:33;9.80;99.90
17687;DHT22;8962;52.538;13.266;2023-01-05T11:58:24;9.80;99.90
17687;DHT22;8962;52.538;13.266;2023-01-05T12:01:10;9.70;99.90
17687;DHT22;8962;52.538;13.266;2023-01-05T12:04:00;9.60;99.90
17687;DHT22;8962;52.538;13.266;2023-01-05T12:06:49;9.60;99.90
17687;DHT22;8962;52.538;13.266;2023-01-05T12:09:22;9.60;99.90
17687;DHT22;8962;52.538;13.266;2023-01-05T12:11:55;9.70;99.90
17687;DHT22;8962;52.538;13.266;2023-01-05T12:17:00;9.80;99.90
17687;DHT22;8962;52.538;13.266;2023-01-05T12:19:52;9.80;99.90
17687;DHT22;8962;52.538;13.266;2023-01-05T12:22:55;9.80;99.90
17687;DHT22;8962;52.538;13.266;2023-01-05T12:25:34;9.80;99.90
17687;DHT22;8962;52.538;13.266;2023-01-05T12:28:27;9.90;99.90
17687;DHT22;8962;52.538;13.266;2023-01-05T12:31:01;9.90;99.90
17687;DHT22;8962;52.538;13.266;2023-01-05T12:33:55;9.90;99.90
17687;DHT22;8962;52.538;13.266;2023-01-05T12:42:59;9.90;99.90
17687;DHT22;8962;52.538;13.266;2023-01-05T12:45:41;9.90;99.90
17687;DHT22;8962;52.538;13.266;2023-01-05T12:48:15;9.80;99.90
17687;DHT22;8962;52.538;13.266;2023-01-05T12:50:46;9.70;99.90
17687;DHT22;8962;52.538;13.266;2023-01-05T12:53:39;9.80;99.90
17687;DHT22;8962;52.538;13.266;2023-01-05T12:56:14;9.80;99.90
17687;DHT22;8962;52.538;13.266;2023-01-05T12:58:48;9.80;99.90
17687;DHT22;8962;52.538;13.266;2023-01-05T13:01:20;9.80;99.90
17687;DHT22;8962;52.538;13.266;2023-01-05T13:03:51;9.80;99.90
17687;DHT22;8962;52.538;13.266;2023-01-05T13:06:22;9.70;99.90
17687;DHT22;8962;52.538;13.266;2023-01-05T13:08:54;9.70;99.90
17687;DHT22;8962;52.538;13.266;2023-01-05T13:11:26;9.60;99.90
17687;DHT22;8962;52.538;13.266;2023-01-05T13:13:58;9.70;99.90
17687;DHT22;8962;52.538;13.266;2023-01-05T13:16:28;9.60;99.90
17687;DHT22;8962;52.538;13.266;2023-01-05T13:18:59;9.60;99.90
17687;DHT22;8962;52.538;13.266;2023-01-05T13:21:28;9.60;99.90
17687;DHT22;8962;52.538;13.266;2023-01-05T13:24:01;9.60;99.90
17687;DHT22;8962;52.538;13.266;2023-01-05T13:26:29;9.50;99.90
17687;DHT22;8962;52.538;13.266;2023-01-05T13:28:56;9.60;99.90
17687;DHT22;8962;52.538;13.266;2023-01-05T13:31:44;9.60;99.90
17687;DHT22;8962;52.538;13.266;2023-01-05T13:34:29;9.50;99.90
17687;DHT22;8962;52.538;13.266;2023-01-05T13:37:19;9.40;99.90
17687;DHT22;8962;52.538;13.266;2023-01-05T13:40:20;9.30;99.90
17687;DHT22;8962;52.538;13.266;2023-01-05T13:43:10;9.30;99.90
17687;DHT22;8962;52.538;13.266;2023-01-05T13:46:09;9.30;99.90
17687;DHT22;8962;52.538;13.266;2023-01-05T13:49:04;9.30;99.90
17687;DHT22;8962;52.538;13.266;2023-01-05T13:51:59;9.30;99.90
17687;DHT22;8962;52.538;13.266;2023-01-05T13:54:37;9.20;99.90
17687;DHT22;8962;52.538;13.266;2023-01-05T13:57:08;9.20;99.90
17687;DHT22;8962;52.538;13.266;2023-01-05T13:59:38;9.20;99.90
17687;DHT22;8962;52.538;13.266;2023-01-05T14:02:24;9.20;99.90
17687;DHT22;8962;52.538;13.266;2023-01-05T14:04:52;9.20;99.90
17687;DHT22;8962;52.538;13.266;2023-01-05T14:07:19;9.20;99.90
17687;DHT22;8962;52.538;13.266;2023-01-05T14:09:48;9.10;99.90
17687;DHT22;8962;52.538;13.266;2023-01-05T14:12:31;9.10;99.90
17687;DHT22;8962;52.538;13.266;2023-01-05T14:15:35;8.90;99.90
17687;DHT22;8962;52.538;13.266;2023-01-05T14:18:03;8.80;99.90
17687;DHT22;8962;52.538;13.266;2023-01-05T14:20:33;8.80;99.90
17687;DHT22;8962;52.538;13.266;2023-01-05T14:23:03;8.70;99.90
17687;DHT22;8962;52.538;13.266;2023-01-05T14:25:51;8.70;99.90
17687;DHT22;8962;52.538;13.266;2023-01-05T14:28:45;8.60;99.90
17687;DHT22;8962;52.538;13.266;2023-01-05T14:31:35;8.50;99.90
17687;DHT22;8962;52.538;13.266;2023-01-05T14:34:05;8.50;99.90
17687;DHT22;8962;52.538;13.266;2023-01-05T14:36:37;8.40;99.90
17687;DHT22;8962;52.538;13.266;2023-01-05T14:39:06;8.40;99.90
17687;DHT22;8962;52.538;13.266;2023-01-05T14:41:57;8.40;99.90
17687;DHT22;8962;52.538;13.266;2023-01-05T14:44:29;8.40;99.90
17687;DHT22;8962;52.538;13.266;2023-01-05T14:46:57;8.40;99.90
17687;DHT22;8962;52.538;13.266;2023-01-05T14:49:29;8.40;99.90
17687;DHT22;8962;52.538;13.266;2023-01-05T14:51:59;8.30;99.90
17687;DHT22;8962;52.538;13.266;2023-01-05T14:57:21;8.30;99.90
17687;DHT22;8962;52.538;13.266;2023-01-05T14:59:50;8.20;99.90
17687;DHT22;8962;52.538;13.266;2023-01-05T15:02:25;8.20;99.90
17687;DHT22;8962;52.538;13.266;2023-01-05T15:04:55;8.20;99.90
17687;DHT22;8962;52.538;13.266;2023-01-05T15:07:34;8.20;99.90
17687;DHT22;8962;52.538;13.266;2023-01-05T15:10:16;8.10;99.90
17687;DHT22;8962;52.538;13.266;2023-01-05T15:12:59;8.10;99.90
17687;DHT22;8962;52.538;13.266;2023-01-05T15:15:39;8.10;99.90
17687;DHT22;8962;52.538;13.266;2023-01-05T15:21:28;8.00;99.90
17687;DHT22;8962;52.538;13.266;2023-01-05T15:30:34;7.90;99.90
17687;DHT22;8962;52.538;13.266;2023-01-05T15:33:11;7.90;99.90
17687;DHT22;8962;52.538;13.266;2023-01-05T15:35:43;7.80;99.90
17687;DHT22;8962;52.538;13.266;2023-01-05T15:38:24;7.90;99.90
17687;DHT22;8962;52.538;13.266;2023-01-05T15:40:58;7.90;99.90
17687;DHT22;8962;52.538;13.266;2023-01-05T15:43:27;7.80;99.90
17687;DHT22;8962;52.538;13.266;2023-01-05T15:45:56;7.80;99.90
17687;DHT22;8962;52.538;13.266;2023-01-05T15:48:27;7.80;99.90
17687;DHT22;8962;52.538;13.266;2023-01-05T15:50:57;7.80;99.90
17687;DHT22;8962;52.538;13.266;2023-01-05T15:53:29;7.70;99.90
17687;DHT22;8962;52.538;13.266;2023-01-05T15:55:58;7.80;99.90
17687;DHT22;8962;52.538;13.266;2023-01-05T15:58:27;7.80;99.90
17687;DHT22;8962;52.538;13.266;2023-01-05T16:01:10;7.80;99.90
17687;DHT22;8962;52.538;13.266;2023-01-05T16:03:39;7.80;99.90
17687;DHT22;8962;52.538;13.266;2023-01-05T16:06:08;7.80;99.90
17687;DHT22;8962;52.538;13.266;2023-01-05T16:08:41;7.80;99.90
17687;DHT22;8962;52.538;13.266;2023-01-05T16:11:12;7.80;99.90
17687;DHT22;8962;52.538;13.266;2023-01-05T16:13:44;7.70;99.90
17687;DHT22;8962;52.538;13.266;2023-01-05T16:16:17;7.80;99.90
17687;DHT22;8962;52.538;13.266;2023-01-05T16:18:50;7.80;99.90
17687;DHT22;8962;52.538;13.266;2023-01-05T16:21:23;7.70;99.90
17687;DHT22;8962;52.538;13.266;2023-01-05T16:23:54;7.70;99.90
17687;DHT22;8962;52.538;13.266;2023-01-05T16:26:22;7.80;99.90
17687;DHT22;8962;52.538;13.266;2023-01-05T16:28:49;7.70;99.90
17687;DHT22;8962;52.538;13.266;2023-01-05T16:31:26;7.70;99.90
17687;DHT22;8962;52.538;13.266;2023-01-05T16:34:01;7.60;99.90
17687;DHT22;8962;52.538;13.266;2023-01-05T16:36:30;7.60;99.90
17687;DHT22;8962;52.538;13.266;2023-01-05T16:39:11;7.60;99.90
17687;DHT22;8962;52.538;13.266;2023-01-05T16:41:39;7.60;99.90
17687;DHT22;8962;52.538;13.266;2023-01-05T16:44:26;7.60;99.90
17687;DHT22;8962;52.538;13.266;2023-01-05T16:47:06;7.70;99.90
17687;DHT22;8962;52.538;13.266;2023-01-05T16:49:35;7.70;99.90